Time,TemperatureF,DewpointF,PressureIn,WindDirection,WindDirectionDegrees,WindSpeedMPH,WindSpeedGustMPH,Humidity,HourlyPrecipIn,Conditions,Clouds,dailyrainin,SoftwareType,DateUTC
2013-08-27 00:02:00,77.7,69.6,30.01,North,0,2.0,3.0,76,0.00,,,0.00,meteohub,2013-08-27 05:02:00,
2013-08-27 00:07:00,77.7,69.6,30.01,North,0,2.0,3.0,76,0.00,,,0.00,meteohub,2013-08-27 05:07:00,
2013-08-27 00:12:00,77.7,69.6,30.01,South,180,2.0,3.0,76,0.00,,,0.00,meteohub,2013-08-27 05:12:00,
2013-08-27 00:17:00,77.5,69.4,30.01,West,270,4.0,4.0,76,0.00,,,0.00,meteohub,2013-08-27 05:17:00,
2013-08-27 00:22:00,77.5,69.4,30.01,NW,315,1.0,4.0,76,0.00,,,0.00,meteohub,2013-08-27 05:22:00,
2013-08-27 00:27:00,77.4,69.3,30.01,NE,45,2.0,4.0,76,0.00,,,0.00,meteohub,2013-08-27 05:27:00,
2013-08-27 00:32:00,77.2,69.4,30.01,North,0,1.0,4.0,77,0.00,,,0.00,meteohub,2013-08-27 05:32:00,
2013-08-27 00:37:00,77.0,69.3,30.01,North,0,2.0,2.0,77,0.00,,,0.00,meteohub,2013-08-27 05:37:00,
2013-08-27 00:42:00,76.8,69.4,30.01,North,0,2.0,2.0,78,0.00,,,0.00,meteohub,2013-08-27 05:42:00,
2013-08-27 00:47:00,76.6,69.3,30.01,NE,45,2.0,2.0,78,0.00,,,0.00,meteohub,2013-08-27 05:47:00,
2013-08-27 00:52:00,76.5,69.4,30.01,East,90,2.0,2.0,79,0.00,,,0.00,meteohub,2013-08-27 05:52:00,
2013-08-27 00:57:00,76.3,69.3,30.01,SSW,203,2.0,2.0,79,0.00,,,0.00,meteohub,2013-08-27 05:57:00,
2013-08-27 01:02:00,76.1,69.1,30.01,NE,45,2.0,2.0,79,0.00,,,0.00,meteohub,2013-08-27 06:02:00,
2013-08-27 01:07:00,76.1,69.1,30.01,NE,45,2.0,2.0,79,0.00,,,0.00,meteohub,2013-08-27 06:07:00,
2013-08-27 01:12:00,75.4,68.7,30.01,West,270,2.0,2.0,80,0.00,,,0.00,meteohub,2013-08-27 06:12:00,
2013-08-27 01:17:00,75.4,68.7,30.01,North,0,1.0,2.0,80,0.00,,,0.00,meteohub,2013-08-27 06:17:00,
2013-08-27 01:22:00,75.7,69.4,30.01,NW,315,1.0,2.0,81,0.00,,,0.00,meteohub,2013-08-27 06:22:00,
2013-08-27 01:27:00,75.7,69.4,30.01,NW,315,1.0,2.0,81,0.00,,,0.00,meteohub,2013-08-27 06:27:00,
2013-08-27 01:32:00,75.7,69.4,30.01,NE,45,2.0,4.0,81,0.00,,,0.00,meteohub,2013-08-27 06:32:00,
2013-08-27 01:37:00,75.7,69.4,30.01,SW,225,2.0,4.0,81,0.00,,,0.00,meteohub,2013-08-27 06:37:00,
2013-08-27 01:42:00,75.7,69.4,30.01,West,270,2.0,4.0,81,0.00,,,0.00,meteohub,2013-08-27 06:42:00,
2013-08-27 01:47:00,75.7,69.4,30.01,West,270,2.0,4.0,81,0.00,,,0.00,meteohub,2013-08-27 06:47:00,
2013-08-27 01:52:00,75.7,69.1,30.01,WSW,248,2.0,4.0,80,0.00,,,0.00,meteohub,2013-08-27 06:52:00,
2013-08-27 01:57:00,75.9,69.3,30.01,NW,315,3.0,7.0,80,0.00,,,0.00,meteohub,2013-08-27 06:57:00,
2013-08-27 02:02:00,75.9,68.9,30.00,NW,315,3.0,7.0,79,0.00,,,0.00,meteohub,2013-08-27 07:02:00,
2013-08-27 02:07:00,75.9,68.9,30.00,NW,315,3.0,7.0,79,0.00,,,0.00,meteohub,2013-08-27 07:07:00,
2013-08-27 02:12:00,76.1,69.1,30.00,SW,225,4.0,5.0,79,0.00,,,0.00,meteohub,2013-08-27 07:12:00,
2013-08-27 02:17:00,75.6,68.2,30.00,SW,225,4.0,5.0,78,0.00,,,0.00,meteohub,2013-08-27 07:17:00,
2013-08-27 02:22:00,76.1,68.7,30.00,South,180,4.0,5.0,78,0.00,,,0.00,meteohub,2013-08-27 07:22:00,
2013-08-27 02:27:00,76.1,68.4,30.00,South,180,6.0,6.0,77,0.00,,,0.00,meteohub,2013-08-27 07:27:00,
2013-08-27 02:32:00,76.1,68.4,30.00,NW,315,3.0,6.0,77,0.00,,,0.00,meteohub,2013-08-27 07:32:00,
2013-08-27 02:37:00,75.9,68.2,30.00,NW,315,3.0,6.0,77,0.00,,,0.00,meteohub,2013-08-27 07:37:00,
2013-08-27 02:42:00,75.9,68.2,30.00,SE,135,4.0,6.0,77,0.00,,,0.00,meteohub,2013-08-27 07:42:00,
2013-08-27 02:47:00,75.7,68.0,30.00,South,180,2.0,5.0,77,0.00,,,0.00,meteohub,2013-08-27 07:47:00,
2013-08-27 02:52:00,75.7,68.0,29.99,NW,315,4.0,5.0,77,0.00,,,0.00,meteohub,2013-08-27 07:52:00,
2013-08-27 02:57:00,75.7,68.0,30.00,NW,315,3.0,5.0,77,0.00,,,0.00,meteohub,2013-08-27 07:57:00,
2013-08-27 03:02:00,75.6,67.8,30.00,South,180,3.0,5.0,77,0.00,,,0.00,meteohub,2013-08-27 08:02:00,
2013-08-27 03:07:00,75.6,67.8,30.00,South,180,3.0,4.0,77,0.00,,,0.00,meteohub,2013-08-27 08:07:00,
2013-08-27 03:12:00,75.4,67.6,30.00,SW,225,4.0,4.0,77,0.00,,,0.00,meteohub,2013-08-27 08:12:00,
2013-08-27 03:17:00,75.4,67.6,30.01,NW,315,4.0,6.0,77,0.00,,,0.00,meteohub,2013-08-27 08:17:00,
2013-08-27 03:22:00,75.4,67.6,30.00,West,270,4.0,6.0,77,0.00,,,0.00,meteohub,2013-08-27 08:22:00,
2013-08-27 03:27:00,75.0,67.3,30.01,SW,225,6.0,7.0,77,0.00,,,0.00,meteohub,2013-08-27 08:27:00,
2013-08-27 03:32:00,75.2,67.5,30.00,SW,225,4.0,7.0,77,0.00,,,0.00,meteohub,2013-08-27 08:32:00,
2013-08-27 03:37:00,74.8,67.1,30.01,NW,315,4.0,7.0,77,0.00,,,0.00,meteohub,2013-08-27 08:37:00,
2013-08-27 03:42:00,75.0,67.3,30.00,NW,315,2.0,6.0,77,0.00,,,0.00,meteohub,2013-08-27 08:42:00,
2013-08-27 03:47:00,75.0,67.3,30.00,SW,225,4.0,6.0,77,0.00,,,0.00,meteohub,2013-08-27 08:47:00,
2013-08-27 03:52:00,75.0,67.3,30.00,NW,315,3.0,6.0,77,0.00,,,0.00,meteohub,2013-08-27 08:52:00,
2013-08-27 03:57:00,75.0,67.3,30.00,NW,315,7.0,7.0,77,0.00,,,0.00,meteohub,2013-08-27 08:57:00,
2013-08-27 04:02:00,75.2,67.5,30.00,SW,225,3.0,7.0,77,0.00,,,0.00,meteohub,2013-08-27 09:02:00,
2013-08-27 04:07:00,75.2,67.5,30.00,SW,225,3.0,7.0,77,0.00,,,0.00,meteohub,2013-08-27 09:07:00,
2013-08-27 04:12:00,75.2,67.5,30.00,SW,225,5.0,7.0,77,0.00,,,0.00,meteohub,2013-08-27 09:12:00,
2013-08-27 04:17:00,74.7,66.9,30.00,East,90,2.0,5.0,77,0.00,,,0.00,meteohub,2013-08-27 09:17:00,
2013-08-27 04:22:00,75.0,67.3,30.00,SW,225,6.0,6.0,77,0.00,,,0.00,meteohub,2013-08-27 09:22:00,
2013-08-27 04:27:00,75.0,67.6,30.00,West,270,3.0,6.0,78,0.00,,,0.00,meteohub,2013-08-27 09:27:00,
2013-08-27 04:32:00,75.0,67.6,30.00,SW,225,5.0,8.0,78,0.00,,,0.00,meteohub,2013-08-27 09:32:00,
2013-08-27 04:37:00,74.8,67.5,30.01,West,270,3.0,8.0,78,0.00,,,0.00,meteohub,2013-08-27 09:37:00,
2013-08-27 04:42:00,74.8,67.8,30.00,North,0,3.0,8.0,79,0.00,,,0.00,meteohub,2013-08-27 09:42:00,
2013-08-27 04:47:00,74.7,67.6,30.00,West,270,4.0,8.0,79,0.00,,,0.00,meteohub,2013-08-27 09:47:00,
2013-08-27 04:52:00,74.5,67.5,30.00,WNW,293,5.0,8.0,79,0.00,,,0.00,meteohub,2013-08-27 09:52:00,
2013-08-27 04:57:00,74.3,67.6,30.00,North,0,2.0,5.0,80,0.00,,,0.00,meteohub,2013-08-27 09:57:00,
2013-08-27 05:02:00,74.3,67.6,30.00,SW,225,4.0,5.0,80,0.00,,,0.00,meteohub,2013-08-27 10:02:00,
2013-08-27 05:07:00,74.3,67.6,30.00,SW,225,4.0,5.0,80,0.00,,,0.00,meteohub,2013-08-27 10:07:00,
2013-08-27 05:12:00,73.4,67.3,30.00,NW,315,3.0,5.0,81,0.00,,,0.00,meteohub,2013-08-27 10:12:00,
2013-08-27 05:17:00,73.6,67.8,30.01,ENE,68,2.0,4.0,82,0.00,,,0.00,meteohub,2013-08-27 10:17:00,
2013-08-27 05:22:00,73.4,67.6,30.01,NW,315,1.0,4.0,82,0.00,,,0.00,meteohub,2013-08-27 10:22:00,
2013-08-27 05:27:00,73.2,67.8,30.01,West,270,2.0,4.0,83,0.00,,,0.00,meteohub,2013-08-27 10:27:00,
2013-08-27 05:32:00,72.9,67.5,30.01,SW,225,2.0,4.0,83,0.00,,,0.00,meteohub,2013-08-27 10:32:00,
2013-08-27 05:37:00,72.7,67.3,30.01,North,0,2.0,2.0,83,0.00,,,0.00,meteohub,2013-08-27 10:37:00,
2013-08-27 05:42:00,72.5,67.5,30.01,West,270,2.0,2.0,84,0.00,,,0.00,meteohub,2013-08-27 10:42:00,
2013-08-27 05:47:00,72.3,67.3,30.01,West,270,1.0,2.0,84,0.00,,,0.00,meteohub,2013-08-27 10:47:00,
2013-08-27 05:52:00,72.0,66.9,30.01,NW,315,2.0,2.0,84,0.00,,,0.00,meteohub,2013-08-27 10:52:00,
2013-08-27 05:57:00,71.8,66.7,30.00,North,0,1.0,2.0,84,0.00,,,0.00,meteohub,2013-08-27 10:57:00,
2013-08-27 06:02:00,71.4,66.7,30.01,NE,45,1.0,2.0,85,0.00,,,0.00,meteohub,2013-08-27 11:02:00,
2013-08-27 06:07:00,71.4,66.7,30.00,NE,45,1.0,2.0,85,0.00,,,0.00,meteohub,2013-08-27 11:07:00,
2013-08-27 06:12:00,71.2,66.9,30.01,NW,315,2.0,2.0,86,0.00,,,0.00,meteohub,2013-08-27 11:12:00,
2013-08-27 06:17:00,71.1,66.9,30.01,West,270,2.0,2.0,87,0.00,,,0.00,meteohub,2013-08-27 11:17:00,
2013-08-27 06:22:00,70.9,66.7,30.01,SW,225,2.0,2.0,87,0.00,,,0.00,meteohub,2013-08-27 11:22:00,
2013-08-27 06:27:00,70.7,66.9,30.01,SW,225,2.0,2.0,88,0.00,,,0.00,meteohub,2013-08-27 11:27:00,
2013-08-27 06:32:00,70.7,66.9,30.01,West,270,2.0,2.0,88,0.00,,,0.00,meteohub,2013-08-27 11:32:00,
2013-08-27 06:37:00,70.7,66.9,30.01,NW,315,2.0,3.0,88,0.00,,,0.00,meteohub,2013-08-27 11:37:00,
2013-08-27 06:42:00,70.7,66.9,30.01,North,0,1.0,3.0,88,0.00,,,0.00,meteohub,2013-08-27 11:42:00,
2013-08-27 06:47:00,70.7,66.9,30.01,West,270,2.0,2.0,88,0.00,,,0.00,meteohub,2013-08-27 11:47:00,
2013-08-27 06:52:00,70.5,66.7,30.01,North,0,2.0,2.0,88,0.00,,,0.00,meteohub,2013-08-27 11:52:00,
2013-08-27 06:57:00,70.7,66.9,30.02,NNW,338,1.0,2.0,88,0.00,,,0.00,meteohub,2013-08-27 11:57:00,
2013-08-27 07:02:00,70.9,67.1,30.01,WNW,293,2.0,2.0,88,0.00,,,0.00,meteohub,2013-08-27 12:02:00,
2013-08-27 07:07:00,70.9,67.1,30.02,WNW,293,2.0,2.0,88,0.00,,,0.00,meteohub,2013-08-27 12:07:00,
2013-08-27 07:12:00,72.5,68.0,30.02,SW,225,2.0,2.0,86,0.00,,,0.00,meteohub,2013-08-27 12:12:00,
2013-08-27 07:17:00,73.2,68.2,30.02,West,270,2.0,2.0,84,0.00,,,0.00,meteohub,2013-08-27 12:17:00,
2013-08-27 07:22:00,73.9,68.2,30.02,NW,315,2.0,2.0,82,0.00,,,0.00,meteohub,2013-08-27 12:22:00,
2013-08-27 07:27:00,74.5,67.8,30.02,East,90,2.0,2.0,80,0.00,,,0.00,meteohub,2013-08-27 12:27:00,
2013-08-27 07:32:00,75.4,67.6,30.02,NW,315,2.0,2.0,77,0.00,,,0.00,meteohub,2013-08-27 12:32:00,
2013-08-27 07:37:00,76.1,68.0,30.02,West,270,2.0,3.0,76,0.00,,,0.00,meteohub,2013-08-27 12:37:00,
2013-08-27 07:42:00,76.6,67.3,30.03,NW,315,2.0,3.0,73,0.00,,,0.00,meteohub,2013-08-27 12:42:00,
2013-08-27 07:47:00,77.0,66.9,30.03,West,270,3.0,4.0,71,0.00,,,0.00,meteohub,2013-08-27 12:47:00,
2013-08-27 07:52:00,76.8,66.2,30.02,NW,315,4.0,4.0,70,0.00,,,0.00,meteohub,2013-08-27 12:52:00,
2013-08-27 07:57:00,76.6,66.2,30.02,WSW,248,3.0,5.0,70,0.00,,,0.00,meteohub,2013-08-27 12:57:00,
2013-08-27 08:02:00,76.3,66.2,30.03,ESE,113,2.0,5.0,71,0.00,,,0.00,meteohub,2013-08-27 13:02:00,
2013-08-27 08:07:00,76.3,66.2,30.03,ESE,113,2.0,5.0,71,0.00,,,0.00,meteohub,2013-08-27 13:07:00,
2013-08-27 08:12:00,76.8,65.8,30.03,SW,225,4.0,4.0,69,0.00,,,0.00,meteohub,2013-08-27 13:12:00,
2013-08-27 08:17:00,77.2,65.8,30.03,West,270,2.0,8.0,68,0.00,,,0.00,meteohub,2013-08-27 13:17:00,
2013-08-27 08:22:00,77.4,65.5,30.02,SW,225,6.0,8.0,67,0.00,,,0.00,meteohub,2013-08-27 13:22:00,
2013-08-27 08:27:00,77.5,65.7,30.03,North,0,5.0,8.0,67,0.00,,,0.00,meteohub,2013-08-27 13:27:00,
2013-08-27 08:32:00,77.9,65.7,30.03,WSW,248,6.0,8.0,66,0.00,,,0.00,meteohub,2013-08-27 13:32:00,
2013-08-27 08:37:00,78.1,65.3,30.03,SW,225,5.0,8.0,65,0.00,,,0.00,meteohub,2013-08-27 13:37:00,
2013-08-27 08:42:00,78.3,65.1,30.02,SW,225,4.0,8.0,64,0.00,,,0.00,meteohub,2013-08-27 13:42:00,
2013-08-27 08:47:00,78.8,65.1,30.03,SE,135,10.0,10.0,63,0.00,,,0.00,meteohub,2013-08-27 13:47:00,
2013-08-27 08:52:00,79.0,65.3,30.03,SW,225,6.0,10.0,63,0.00,,,0.00,meteohub,2013-08-27 13:52:00,
2013-08-27 08:57:00,79.5,65.3,30.02,NW,315,6.0,10.0,62,0.00,,,0.00,meteohub,2013-08-27 13:57:00,
2013-08-27 09:02:00,79.7,65.5,30.03,West,270,3.0,10.0,62,0.00,,,0.00,meteohub,2013-08-27 14:02:00,
2013-08-27 09:07:00,79.7,65.5,30.03,West,270,3.0,8.0,62,0.00,,,0.00,meteohub,2013-08-27 14:07:00,
2013-08-27 09:12:00,80.4,64.8,30.03,West,270,5.0,9.0,59,0.00,,,0.00,meteohub,2013-08-27 14:12:00,
2013-08-27 09:17:00,80.8,64.6,30.03,South,180,10.0,11.0,58,0.00,,,0.00,meteohub,2013-08-27 14:17:00,
2013-08-27 09:22:00,81.1,64.4,30.03,SSW,203,7.0,11.0,57,0.00,,,0.00,meteohub,2013-08-27 14:22:00,
2013-08-27 09:27:00,81.7,64.4,30.03,WNW,293,8.0,11.0,56,0.00,,,0.00,meteohub,2013-08-27 14:27:00,
2013-08-27 09:32:00,82.6,64.8,30.02,North,0,4.0,11.0,55,0.00,,,0.00,meteohub,2013-08-27 14:32:00,
2013-08-27 09:37:00,83.8,63.9,30.02,NW,315,7.0,10.0,51,0.00,,,0.00,meteohub,2013-08-27 14:37:00,
2013-08-27 09:42:00,84.4,64.2,30.02,NW,315,6.0,10.0,51,0.00,,,0.00,meteohub,2013-08-27 14:42:00,
2013-08-27 09:47:00,84.9,63.7,30.02,West,270,9.0,9.0,49,0.00,,,0.00,meteohub,2013-08-27 14:47:00,
2013-08-27 09:52:00,85.5,64.0,30.03,SE,135,5.0,10.0,49,0.00,,,0.00,meteohub,2013-08-27 14:52:00,
2013-08-27 09:57:00,86.2,64.2,30.03,WNW,293,7.0,10.0,48,0.00,,,0.00,meteohub,2013-08-27 14:57:00,
2013-08-27 10:02:00,86.7,63.5,30.03,SW,225,7.0,10.0,46,0.00,,,0.00,meteohub,2013-08-27 15:02:00,
2013-08-27 10:07:00,86.7,63.5,30.03,SW,225,7.0,8.0,46,0.00,,,0.00,meteohub,2013-08-27 15:07:00,
2013-08-27 10:12:00,87.3,64.0,30.02,NW,315,6.0,9.0,46,0.00,,,0.00,meteohub,2013-08-27 15:12:00,
2013-08-27 10:17:00,87.3,64.0,30.02,SSW,203,4.0,10.0,46,0.00,,,0.00,meteohub,2013-08-27 15:17:00,
2013-08-27 10:22:00,88.0,63.3,30.03,North,0,6.0,10.0,44,0.00,,,0.00,meteohub,2013-08-27 15:22:00,
2013-08-27 10:27:00,88.3,63.0,30.03,South,180,6.0,10.0,43,0.00,,,0.00,meteohub,2013-08-27 15:27:00,
2013-08-27 10:32:00,88.0,63.3,30.03,East,90,7.0,11.0,44,0.00,,,0.00,meteohub,2013-08-27 15:32:00,
2013-08-27 10:37:00,88.5,63.1,30.03,NW,315,7.0,11.0,43,0.00,,,0.00,meteohub,2013-08-27 15:37:00,
2013-08-27 10:42:00,88.9,62.8,30.03,SW,225,6.0,11.0,42,0.00,,,0.00,meteohub,2013-08-27 15:42:00,
2013-08-27 10:47:00,88.7,62.1,30.03,South,180,8.0,11.0,41,0.00,,,0.00,meteohub,2013-08-27 15:47:00,
2013-08-27 10:52:00,88.5,62.4,30.03,East,90,8.0,11.0,42,0.00,,,0.00,meteohub,2013-08-27 15:52:00,
2013-08-27 10:57:00,89.2,62.4,30.03,WNW,293,7.0,11.0,41,0.00,,,0.00,meteohub,2013-08-27 15:57:00,
2013-08-27 11:02:00,89.6,62.8,30.03,NW,315,7.0,11.0,41,0.00,,,0.00,meteohub,2013-08-27 16:02:00,
2013-08-27 11:07:00,89.6,62.8,30.03,NW,315,7.0,8.0,41,0.00,,,0.00,meteohub,2013-08-27 16:07:00,
2013-08-27 11:12:00,90.5,63.0,30.03,NW,315,7.0,8.0,40,0.00,,,0.00,meteohub,2013-08-27 16:12:00,
2013-08-27 11:17:00,91.2,63.5,30.03,North,0,4.0,8.0,40,0.00,,,0.00,meteohub,2013-08-27 16:17:00,
2013-08-27 11:22:00,91.8,63.3,30.03,SW,225,4.0,8.0,39,0.00,,,0.00,meteohub,2013-08-27 16:22:00,
2013-08-27 11:27:00,91.4,61.5,30.03,NW,315,5.0,14.0,37,0.00,,,0.00,meteohub,2013-08-27 16:27:00,
2013-08-27 11:32:00,91.8,60.3,30.03,NW,315,10.0,14.0,35,0.00,,,0.00,meteohub,2013-08-27 16:32:00,
2013-08-27 11:37:00,91.4,62.2,30.03,South,180,8.0,14.0,38,0.00,,,0.00,meteohub,2013-08-27 16:37:00,
2013-08-27 11:42:00,91.8,61.7,30.03,South,180,8.0,10.0,37,0.00,,,0.00,meteohub,2013-08-27 16:42:00,
2013-08-27 11:47:00,91.8,63.3,30.02,East,90,8.0,10.0,39,0.00,,,0.00,meteohub,2013-08-27 16:47:00,
2013-08-27 11:52:00,91.9,61.2,30.03,North,0,11.0,11.0,36,0.00,,,0.00,meteohub,2013-08-27 16:52:00,
2013-08-27 11:57:00,91.9,61.9,30.02,WNW,293,11.0,11.0,37,0.00,,,0.00,meteohub,2013-08-27 16:57:00,
2013-08-27 12:02:00,91.8,61.7,30.03,SW,225,11.0,11.0,37,0.00,,,0.00,meteohub,2013-08-27 17:02:00,
2013-08-27 12:07:00,91.8,61.7,30.02,SW,225,11.0,11.0,37,0.00,,,0.00,meteohub,2013-08-27 17:07:00,
2013-08-27 12:12:00,92.7,61.9,30.02,SW,225,5.0,11.0,36,0.00,,,0.00,meteohub,2013-08-27 17:12:00,
2013-08-27 12:17:00,92.7,60.3,30.02,South,180,8.0,11.0,34,0.00,,,0.00,meteohub,2013-08-27 17:17:00,
2013-08-27 12:22:00,92.5,60.1,30.02,NW,315,7.0,12.0,34,0.00,,,0.00,meteohub,2013-08-27 17:22:00,
2013-08-27 12:27:00,92.7,62.6,30.02,North,0,4.0,12.0,37,0.00,,,0.00,meteohub,2013-08-27 17:27:00,
2013-08-27 12:32:00,93.2,60.6,30.01,West,270,6.0,11.0,34,0.00,,,0.00,meteohub,2013-08-27 17:32:00,
2013-08-27 12:37:00,93.2,60.6,30.01,NW,315,4.0,11.0,34,0.00,,,0.00,meteohub,2013-08-27 17:37:00,
2013-08-27 12:42:00,93.6,62.6,30.01,East,90,4.0,11.0,36,0.00,,,0.00,meteohub,2013-08-27 17:42:00,
2013-08-27 12:47:00,93.7,60.3,30.00,NW,315,7.0,11.0,33,0.00,,,0.00,meteohub,2013-08-27 17:47:00,
2013-08-27 12:52:00,93.6,59.2,30.00,NW,315,6.0,11.0,32,0.00,,,0.00,meteohub,2013-08-27 17:52:00,
2013-08-27 12:57:00,93.2,60.6,30.00,NW,315,10.0,11.0,34,0.00,,,0.00,meteohub,2013-08-27 17:57:00,
2013-08-27 13:02:00,93.2,59.9,30.00,NW,315,11.0,12.0,33,0.00,,,0.00,meteohub,2013-08-27 18:02:00,
2013-08-27 13:07:00,93.2,59.9,30.00,NW,315,11.0,12.0,33,0.00,,,0.00,meteohub,2013-08-27 18:07:00,
2013-08-27 13:12:00,94.1,60.6,30.00,SE,135,4.0,12.0,33,0.00,,,0.00,meteohub,2013-08-27 18:12:00,
2013-08-27 13:17:00,94.1,60.6,29.99,NW,315,8.0,11.0,33,0.00,,,0.00,meteohub,2013-08-27 18:17:00,
2013-08-27 13:22:00,94.8,61.2,29.99,SW,225,4.0,11.0,33,0.00,,,0.00,meteohub,2013-08-27 18:22:00,
2013-08-27 13:27:00,95.2,60.6,29.99,West,270,4.0,11.0,32,0.00,,,0.00,meteohub,2013-08-27 18:27:00,
2013-08-27 13:32:00,94.8,59.5,29.99,SW,225,8.0,11.0,31,0.00,,,0.00,meteohub,2013-08-27 18:32:00,
2013-08-27 13:37:00,94.3,58.1,29.99,NW,315,4.0,11.0,30,0.00,,,0.00,meteohub,2013-08-27 18:37:00,
2013-08-27 13:42:00,94.6,56.5,29.99,SW,225,11.0,12.0,28,0.00,,,0.00,meteohub,2013-08-27 18:42:00,
2013-08-27 13:47:00,94.1,57.9,29.99,NW,315,10.0,12.0,30,0.00,,,0.00,meteohub,2013-08-27 18:47:00,
2013-08-27 13:52:00,94.3,58.1,29.99,NW,315,8.0,12.0,30,0.00,,,0.00,meteohub,2013-08-27 18:52:00,
2013-08-27 13:57:00,94.1,57.0,29.99,WSW,248,11.0,15.0,29,0.00,,,0.00,meteohub,2013-08-27 18:57:00,
2013-08-27 14:02:00,94.1,59.7,29.98,West,270,8.0,15.0,32,0.00,,,0.00,meteohub,2013-08-27 19:02:00,
2013-08-27 14:07:00,94.1,59.7,29.99,West,270,8.0,15.0,32,0.00,,,0.00,meteohub,2013-08-27 19:07:00,
2013-08-27 14:12:00,94.6,57.4,29.99,NW,315,9.0,11.0,29,0.00,,,0.00,meteohub,2013-08-27 19:12:00,
2013-08-27 14:17:00,95.0,58.6,29.98,South,180,10.0,11.0,30,0.00,,,0.00,meteohub,2013-08-27 19:17:00,
2013-08-27 14:22:00,95.4,57.0,29.98,West,270,10.0,11.0,28,0.00,,,0.00,meteohub,2013-08-27 19:22:00,
2013-08-27 14:27:00,95.4,56.1,29.98,NW,315,11.0,11.0,27,0.00,,,0.00,meteohub,2013-08-27 19:27:00,
2013-08-27 14:32:00,95.7,58.5,29.99,NW,315,7.0,11.0,29,0.00,,,0.00,meteohub,2013-08-27 19:32:00,
2013-08-27 14:37:00,95.4,58.1,29.98,NW,315,5.0,12.0,29,0.00,,,0.00,meteohub,2013-08-27 19:37:00,
2013-08-27 14:42:00,95.4,58.1,29.98,NW,315,8.0,13.0,29,0.00,,,0.00,meteohub,2013-08-27 19:42:00,
2013-08-27 15:08:00,96.3,57.9,29.96,NW,315,8.0,12.0,28,0.00,,,0.00,meteohub,2013-08-27 20:08:00,
2013-08-27 15:13:00,96.4,57.0,29.97,NW,315,8.0,9.0,27,0.00,,,0.00,meteohub,2013-08-27 20:13:00,
2013-08-27 15:18:00,96.1,56.7,29.97,NW,315,7.0,11.0,27,0.00,,,0.00,meteohub,2013-08-27 20:18:00,
2013-08-27 15:23:00,96.1,56.7,29.96,WSW,248,8.0,11.0,27,0.00,,,0.00,meteohub,2013-08-27 20:23:00,
2013-08-27 15:28:00,96.6,56.1,29.96,SE,135,11.0,11.0,26,0.00,,,0.00,meteohub,2013-08-27 20:28:00,
2013-08-27 15:33:00,96.6,57.2,29.96,North,0,4.0,11.0,27,0.00,,,0.00,meteohub,2013-08-27 20:33:00,
2013-08-27 15:38:00,97.3,56.7,29.96,NW,315,5.0,11.0,26,0.00,,,0.00,meteohub,2013-08-27 20:38:00,
2013-08-27 15:43:00,96.6,55.0,29.96,NNE,23,6.0,11.0,25,0.00,,,0.00,meteohub,2013-08-27 20:43:00,
2013-08-27 15:49:00,95.2,57.0,29.96,WSW,248,4.0,9.0,28,0.00,,,0.00,meteohub,2013-08-27 20:49:00,
2013-08-27 15:54:00,93.7,57.6,29.96,North,0,5.0,11.0,30,0.00,,,0.00,meteohub,2013-08-27 20:54:00,
2013-08-27 15:59:00,94.1,57.0,29.96,West,270,3.0,11.0,29,0.00,,,0.00,meteohub,2013-08-27 20:59:00,
2013-08-27 16:04:00,93.9,57.7,29.96,West,270,5.0,12.0,30,0.00,,,0.00,meteohub,2013-08-27 21:04:00,
2013-08-27 16:09:00,95.7,53.2,29.96,NE,45,5.0,12.0,24,0.00,,,0.00,meteohub,2013-08-27 21:09:00,
2013-08-27 16:19:00,96.3,56.8,29.96,East,90,4.0,9.0,27,0.00,,,0.00,meteohub,2013-08-27 21:19:00,
2013-08-27 16:26:00,96.8,55.2,29.96,NW,315,8.0,10.0,25,0.00,,,0.00,meteohub,2013-08-27 21:26:00,
2013-08-27 16:41:00,97.7,49.8,29.96,West,270,10.0,10.0,20,0.00,,,0.00,meteohub,2013-08-27 21:41:00,
2013-08-27 16:47:00,95.0,51.4,29.96,SW,225,6.0,11.0,23,0.00,,,0.00,meteohub,2013-08-27 21:47:00,
2013-08-27 16:52:00,94.1,55.0,29.96,South,180,5.0,11.0,27,0.00,,,0.00,meteohub,2013-08-27 21:52:00,
2013-08-27 16:57:00,95.7,53.2,29.96,West,270,9.0,11.0,24,0.00,,,0.00,meteohub,2013-08-27 21:57:00,
2013-08-27 17:02:00,96.3,54.7,29.95,SSE,158,2.0,11.0,25,0.00,,,0.00,meteohub,2013-08-27 22:02:00,
2013-08-27 17:07:00,96.3,54.7,29.95,SSE,158,2.0,11.0,25,0.00,,,0.00,meteohub,2013-08-27 22:07:00,
2013-08-27 17:12:00,97.2,52.0,29.95,SW,225,6.0,11.0,22,0.00,,,0.00,meteohub,2013-08-27 22:12:00,
2013-08-27 17:17:00,97.0,50.5,29.95,WSW,248,4.0,7.0,21,0.00,,,0.00,meteohub,2013-08-27 22:17:00,
2013-08-27 17:22:00,97.0,51.8,29.95,NW,315,8.0,11.0,22,0.00,,,0.00,meteohub,2013-08-27 22:22:00,
2013-08-27 17:27:00,96.6,54.0,29.94,South,180,6.0,11.0,24,0.00,,,0.00,meteohub,2013-08-27 22:27:00,
2013-08-27 17:32:00,95.9,52.2,29.94,South,180,4.0,11.0,23,0.00,,,0.00,meteohub,2013-08-27 22:32:00,
2013-08-27 17:37:00,96.4,53.8,29.94,NE,45,7.0,8.0,24,0.00,,,0.00,meteohub,2013-08-27 22:37:00,
2013-08-27 17:42:00,96.8,52.9,29.94,North,0,2.0,8.0,23,0.00,,,0.00,meteohub,2013-08-27 22:42:00,
2013-08-27 17:47:00,96.8,51.6,29.95,NW,315,4.0,7.0,22,0.00,,,0.00,meteohub,2013-08-27 22:47:00,
2013-08-27 17:52:00,97.0,53.1,29.94,NW,315,3.0,8.0,23,0.00,,,0.00,meteohub,2013-08-27 22:52:00,
2013-08-27 17:57:00,97.2,50.7,29.94,NW,315,5.0,8.0,21,0.00,,,0.00,meteohub,2013-08-27 22:57:00,
2013-08-27 18:02:00,96.6,50.4,29.94,North,0,5.0,8.0,21,0.00,,,0.00,meteohub,2013-08-27 23:02:00,
2013-08-27 18:07:00,96.6,50.4,29.94,North,0,5.0,6.0,21,0.00,,,0.00,meteohub,2013-08-27 23:07:00,
2013-08-27 18:12:00,96.3,50.0,29.94,NW,315,3.0,7.0,21,0.00,,,0.00,meteohub,2013-08-27 23:12:00,
2013-08-27 18:17:00,95.9,49.6,29.95,SW,225,9.0,9.0,21,0.00,,,0.00,meteohub,2013-08-27 23:17:00,
2013-08-27 18:22:00,95.4,50.5,29.94,North,0,7.0,9.0,22,0.00,,,0.00,meteohub,2013-08-27 23:22:00,
2013-08-27 18:27:00,95.2,51.6,29.94,SW,225,8.0,9.0,23,0.00,,,0.00,meteohub,2013-08-27 23:27:00,
2013-08-27 18:32:00,95.2,52.7,29.94,West,270,5.0,9.0,24,0.00,,,0.00,meteohub,2013-08-27 23:32:00,
2013-08-27 18:37:00,95.0,53.6,29.94,SW,225,3.0,8.0,25,0.00,,,0.00,meteohub,2013-08-27 23:37:00,
2013-08-27 18:42:00,95.0,53.6,29.94,NW,315,3.0,8.0,25,0.00,,,0.00,meteohub,2013-08-27 23:42:00,
2013-08-27 18:47:00,94.5,54.3,29.94,SW,225,2.0,6.0,26,0.00,,,0.00,meteohub,2013-08-27 23:47:00,
2013-08-27 18:52:00,94.3,55.2,29.94,NW,315,2.0,5.0,27,0.00,,,0.00,meteohub,2013-08-27 23:52:00,
2013-08-27 18:57:00,93.9,54.9,29.94,NW,315,2.0,6.0,27,0.00,,,0.00,meteohub,2013-08-27 23:57:00,
2013-08-27 19:02:00,93.9,55.9,29.94,West,270,2.0,6.0,28,0.00,,,0.00,meteohub,2013-08-28 00:02:00,
2013-08-27 19:07:00,93.9,55.9,29.94,West,270,2.0,6.0,28,0.00,,,0.00,meteohub,2013-08-28 00:07:00,
2013-08-27 19:12:00,92.7,55.8,29.94,SW,225,2.0,4.0,29,0.00,,,0.00,meteohub,2013-08-28 00:12:00,
2013-08-27 19:17:00,91.8,55.9,29.94,SW,225,4.0,5.0,30,0.00,,,0.00,meteohub,2013-08-28 00:17:00,
2013-08-27 19:22:00,91.2,57.2,29.94,NW,315,2.0,5.0,32,0.00,,,0.00,meteohub,2013-08-28 00:22:00,
2013-08-27 19:27:00,90.5,57.4,29.94,NW,315,2.0,5.0,33,0.00,,,0.00,meteohub,2013-08-28 00:27:00,
2013-08-27 19:32:00,89.1,57.9,29.95,East,90,2.0,4.0,35,0.00,,,0.00,meteohub,2013-08-28 00:32:00,
2013-08-27 19:37:00,87.8,59.0,29.94,North,0,2.0,3.0,38,0.00,,,0.00,meteohub,2013-08-28 00:37:00,
2013-08-27 19:42:00,86.9,59.7,29.95,East,90,2.0,2.0,40,0.00,,,0.00,meteohub,2013-08-28 00:42:00,
2013-08-27 19:47:00,86.2,60.4,29.96,North,0,2.0,2.0,42,0.00,,,0.00,meteohub,2013-08-28 00:47:00,
2013-08-27 19:52:00,85.3,60.3,29.95,North,0,1.0,2.0,43,0.00,,,0.00,meteohub,2013-08-28 00:52:00,
2013-08-27 19:57:00,84.6,60.3,29.95,SE,135,2.0,2.0,44,0.00,,,0.00,meteohub,2013-08-28 00:57:00,
2013-08-27 20:02:00,84.4,60.8,29.95,North,0,1.0,2.0,45,0.00,,,0.00,meteohub,2013-08-28 01:02:00,
2013-08-27 20:07:00,83.5,61.2,29.95,NE,45,2.0,2.0,47,0.00,,,0.00,meteohub,2013-08-28 01:07:00,
2013-08-27 20:12:00,82.9,61.2,29.95,East,90,1.0,2.0,48,0.00,,,0.00,meteohub,2013-08-28 01:12:00,
2013-08-27 20:18:00,82.6,61.5,29.95,North,0,2.0,2.0,49,0.00,,,0.00,meteohub,2013-08-28 01:18:00,
2013-08-27 20:23:00,82.2,61.7,29.95,North,0,1.0,2.0,50,0.00,,,0.00,meteohub,2013-08-28 01:23:00,
2013-08-27 20:28:00,81.9,61.3,29.95,North,0,1.0,2.0,50,0.00,,,0.00,meteohub,2013-08-28 01:28:00,
2013-08-27 20:33:00,81.7,61.9,29.95,NE,45,2.0,2.0,51,0.00,,,0.00,meteohub,2013-08-28 01:33:00,
2013-08-27 20:38:00,81.3,62.1,29.95,NW,315,2.0,2.0,52,0.00,,,0.00,meteohub,2013-08-28 01:38:00,
2013-08-27 20:43:00,81.1,62.4,29.96,West,270,1.0,2.0,53,0.00,,,0.00,meteohub,2013-08-28 01:43:00,
2013-08-27 20:48:00,81.0,62.2,29.96,NE,45,1.0,2.0,53,0.00,,,0.00,meteohub,2013-08-28 01:48:00,
2013-08-27 20:53:00,80.8,62.6,29.96,NE,45,2.0,2.0,54,0.00,,,0.00,meteohub,2013-08-28 01:53:00,
2013-08-27 20:58:00,80.6,63.0,29.96,North,0,2.0,2.0,55,0.00,,,0.00,meteohub,2013-08-28 01:58:00,
2013-08-27 21:03:00,80.4,62.8,29.96,North,0,1.0,4.0,55,0.00,,,0.00,meteohub,2013-08-28 02:03:00,
2013-08-27 21:08:00,80.1,63.0,29.96,NE,45,2.0,4.0,56,0.00,,,0.00,meteohub,2013-08-28 02:08:00,
2013-08-27 21:14:00,79.9,63.3,29.96,West,270,1.0,4.0,57,0.00,,,0.00,meteohub,2013-08-28 02:14:00,
2013-08-27 21:19:00,79.7,63.7,29.96,West,270,2.0,3.0,58,0.00,,,0.00,meteohub,2013-08-28 02:19:00,
2013-08-27 21:25:00,79.5,63.5,29.97,East,90,2.0,3.0,58,0.00,,,0.00,meteohub,2013-08-28 02:25:00,
2013-08-27 21:30:00,79.3,63.7,29.97,East,90,2.0,3.0,59,0.00,,,0.00,meteohub,2013-08-28 02:30:00,
2013-08-27 21:35:00,79.0,63.9,29.96,North,0,2.0,3.0,60,0.00,,,0.00,meteohub,2013-08-28 02:35:00,
2013-08-27 21:40:00,78.8,63.7,29.96,NW,315,1.0,2.0,60,0.00,,,0.00,meteohub,2013-08-28 02:40:00,
2013-08-27 21:45:00,78.4,63.9,29.97,SW,225,2.0,2.0,61,0.00,,,0.00,meteohub,2013-08-28 02:45:00,
2013-08-27 21:50:00,78.3,63.7,29.97,East,90,2.0,2.0,61,0.00,,,0.00,meteohub,2013-08-28 02:50:00,
2013-08-27 21:55:00,78.1,64.4,29.97,East,90,2.0,2.0,63,0.00,,,0.00,meteohub,2013-08-28 02:55:00,
2013-08-27 22:01:00,78.1,64.9,29.97,ESE,113,2.0,2.0,64,0.00,,,0.00,meteohub,2013-08-28 03:01:00,
2013-08-27 22:06:00,78.1,64.9,29.97,ESE,113,2.0,3.0,64,0.00,,,0.00,meteohub,2013-08-28 03:06:00,
2013-08-27 22:11:00,77.7,64.9,29.97,East,90,4.0,4.0,65,0.00,,,0.00,meteohub,2013-08-28 03:11:00,
2013-08-27 22:16:00,77.5,64.8,29.97,North,0,1.0,4.0,65,0.00,,,0.00,meteohub,2013-08-28 03:16:00,
2013-08-27 22:21:00,77.4,65.1,29.96,North,0,2.0,4.0,66,0.00,,,0.00,meteohub,2013-08-28 03:21:00,
2013-08-27 22:26:00,77.2,64.9,29.97,NW,315,1.0,2.0,66,0.00,,,0.00,meteohub,2013-08-28 03:26:00,
2013-08-27 22:31:00,77.2,64.9,29.96,North,0,1.0,2.0,66,0.00,,,0.00,meteohub,2013-08-28 03:31:00,
2013-08-27 22:37:00,77.0,64.8,29.96,North,0,1.0,2.0,66,0.00,,,0.00,meteohub,2013-08-28 03:37:00,
2013-08-27 22:42:00,76.5,64.2,29.96,NE,45,2.0,2.0,66,0.00,,,0.00,meteohub,2013-08-28 03:42:00,
2013-08-27 22:47:00,76.8,64.6,29.96,East,90,2.0,2.0,66,0.00,,,0.00,meteohub,2013-08-28 03:47:00,
2013-08-27 22:52:00,76.8,64.6,29.97,West,270,1.0,2.0,66,0.00,,,0.00,meteohub,2013-08-28 03:52:00,
2013-08-27 22:57:00,77.0,64.4,29.97,NW,315,2.0,2.0,65,0.00,,,0.00,meteohub,2013-08-28 03:57:00,
2013-08-27 23:01:00,77.0,64.4,29.97,SW,225,2.0,2.0,65,0.00,,,0.00,meteohub,2013-08-28 04:01:00,
2013-08-27 23:02:00,77.0,64.4,29.96,SW,225,2.0,2.0,65,0.00,,,0.00,meteohub,2013-08-28 04:02:00,
2013-08-27 23:03:00,77.0,64.4,29.97,SW,225,2.0,2.0,65,0.00,,,0.00,meteohub,2013-08-28 04:03:00,
2013-08-27 23:08:00,76.8,64.2,29.96,North,0,2.0,2.0,65,0.00,,,0.00,meteohub,2013-08-28 04:08:00,
2013-08-27 23:13:00,77.0,63.9,29.96,NW,315,2.0,3.0,64,0.00,,,0.00,meteohub,2013-08-28 04:13:00,
2013-08-27 23:15:00,77.0,63.9,29.97,West,270,2.0,3.0,64,0.00,,,0.00,meteohub,2013-08-28 04:15:00,
2013-08-27 23:20:00,77.0,63.5,29.96,SW,225,2.0,3.0,63,0.00,,,0.00,meteohub,2013-08-28 04:20:00,
2013-08-27 23:25:00,77.2,63.7,29.96,North,0,2.0,3.0,63,0.00,,,0.00,meteohub,2013-08-28 04:25:00,
2013-08-27 23:30:00,77.2,63.1,29.97,NW,315,2.0,3.0,62,0.00,,,0.00,meteohub,2013-08-28 04:30:00,
2013-08-27 23:35:00,77.2,63.1,29.96,NW,315,1.0,3.0,62,0.00,,,0.00,meteohub,2013-08-28 04:35:00,
2013-08-27 23:40:00,77.0,63.0,29.96,SW,225,2.0,3.0,62,0.00,,,0.00,meteohub,2013-08-28 04:40:00,
2013-08-27 23:45:00,76.8,63.3,29.96,North,0,2.0,3.0,63,0.00,,,0.00,meteohub,2013-08-28 04:45:00,
2013-08-27 23:50:00,76.6,63.1,29.96,NE,45,1.0,3.0,63,0.00,,,0.00,meteohub,2013-08-28 04:50:00,
2013-08-27 23:55:00,76.6,63.1,29.96,West,270,2.0,3.0,63,0.00,,,0.00,meteohub,2013-08-28 04:55:00,